createdAt,value
2022-12-06T00:00:04.927Z,40.33
2022-12-06T00:02:58.608Z,43.05
2022-12-06T00:05:46.326Z,43.75
2022-12-06T00:08:32.565Z,43.97
2022-12-06T00:11:22.002Z,50.50
2022-12-06T00:14:08.388Z,42.30
2022-12-06T00:16:54.508Z,45.47
2022-12-06T00:19:40.460Z,39.55
2022-12-06T00:22:26.491Z,36.47
2022-12-06T00:25:12.380Z,33.53
2022-12-06T00:27:58.387Z,34.90
2022-12-06T00:30:44.249Z,32.88
2022-12-06T00:33:30.328Z,33.10
2022-12-06T00:36:18.973Z,27.52
2022-12-06T00:39:07.609Z,30.55
2022-12-06T00:41:56.038Z,32.92
2022-12-06T00:44:41.908Z,32.97
2022-12-06T00:47:27.846Z,31.30
2022-12-06T00:50:13.662Z,31.88
2022-12-06T00:52:59.463Z,34.83
2022-12-06T00:55:46.381Z,34.15
2022-12-06T00:58:32.434Z,33.08
2022-12-06T01:01:21.575Z,36.38
2022-12-06T01:04:09.431Z,33.42
2022-12-06T01:06:55.506Z,33.10
2022-12-06T01:09:42.558Z,31.45
2022-12-06T01:12:28.716Z,35.15
2022-12-06T01:15:14.900Z,33.80
2022-12-06T01:18:00.982Z,30.38
2022-12-06T01:20:47.275Z,28.08
2022-12-06T01:23:33.267Z,32.20
2022-12-06T01:26:23.044Z,27.05
2022-12-06T01:29:10.067Z,29.85
2022-12-06T01:31:56.415Z,29.70
2022-12-06T01:34:43.577Z,27.48
2022-12-06T01:37:29.820Z,30.83
2022-12-06T01:40:15.880Z,32.75
2022-12-06T01:43:01.657Z,33.83
2022-12-06T01:45:47.648Z,33.38
2022-12-06T01:48:34.020Z,34.85
2022-12-06T01:51:20.226Z,31.30
2022-12-06T01:54:09.124Z,33.80
2022-12-06T01:56:56.406Z,28.88
2022-12-06T01:59:42.562Z,28.83
2022-12-06T02:02:28.717Z,28.98
2022-12-06T02:05:15.950Z,28.23
2022-12-06T02:08:01.792Z,28.75
2022-12-06T02:10:48.077Z,33.47
2022-12-06T02:13:34.676Z,31.95
2022-12-06T02:16:36.160Z,29.80
2022-12-06T02:19:44.042Z,26.85
2022-12-06T02:22:40.687Z,33.67
2022-12-06T02:25:53.537Z,33.65
2022-12-06T02:32:13.469Z,31.10
2022-12-06T02:35:19.668Z,25.35
2022-12-06T02:38:13.144Z,28.55
2022-12-06T02:41:01.914Z,28.48
2022-12-06T02:43:53.020Z,27.90
2022-12-06T02:46:41.497Z,28.48
2022-12-06T02:49:31.856Z,34.20
2022-12-06T02:52:19.618Z,25.67
2022-12-06T02:55:08.429Z,31.40
2022-12-06T02:57:56.989Z,31.90
2022-12-06T03:00:50.472Z,35.97
2022-12-06T03:03:45.706Z,31.58
2022-12-06T03:07:02.530Z,30.80
2022-12-06T03:10:19.637Z,37.15
2022-12-06T03:13:19.029Z,38.15
2022-12-06T03:16:19.741Z,36.42
2022-12-06T03:19:09.966Z,35.33
2022-12-06T03:22:04.606Z,34.88
2022-12-06T03:24:51.359Z,33.58
2022-12-06T03:27:37.644Z,34.63
2022-12-06T03:30:23.978Z,31.45
2022-12-06T03:33:10.488Z,31.85
2022-12-06T03:35:57.843Z,29.15
2022-12-06T03:39:11.149Z,27.38
2022-12-06T03:41:58.806Z,26.88
2022-12-06T03:44:45.575Z,30.02
2022-12-06T03:47:40.627Z,30.42
2022-12-06T03:50:31.469Z,26.25
2022-12-06T03:53:18.775Z,22.67
2022-12-06T03:56:04.812Z,33.88
2022-12-06T03:58:50.965Z,27.88
2022-12-06T04:01:38.330Z,26.80
2022-12-06T04:04:25.070Z,29.02
2022-12-06T04:07:12.105Z,22.40
2022-12-06T04:10:03.753Z,24.10
2022-12-06T04:13:13.082Z,23.08
2022-12-06T04:16:01.919Z,24.52
2022-12-06T04:18:48.075Z,25.88
2022-12-06T04:21:33.894Z,21.90
2022-12-06T04:24:19.868Z,23.90
2022-12-06T04:27:24.239Z,21.63
2022-12-06T04:30:29.562Z,24.05
2022-12-06T04:33:34.235Z,23.00
2022-12-06T04:36:38.914Z,22.67
2022-12-06T04:39:25.761Z,20.95
2022-12-06T04:42:29.962Z,20.05
2022-12-06T04:45:16.325Z,21.15
2022-12-06T04:48:02.524Z,23.98
2022-12-06T04:50:51.645Z,22.25
2022-12-06T04:53:37.676Z,27.05
2022-12-06T04:56:23.663Z,24.38
2022-12-06T04:59:09.630Z,26.95
2022-12-06T05:01:56.293Z,27.83
2022-12-06T05:04:42.214Z,27.88
2022-12-06T05:07:28.361Z,26.30
2022-12-06T05:10:14.543Z,25.05
2022-12-06T05:13:01.522Z,25.98
2022-12-06T05:15:59.255Z,29.40
2022-12-06T05:18:45.105Z,28.77
2022-12-06T05:21:31.414Z,26.25
2022-12-06T05:24:17.417Z,22.52
2022-12-06T05:27:03.416Z,25.05
2022-12-06T05:29:49.649Z,25.33
2022-12-06T05:32:35.770Z,25.83
2022-12-06T05:35:21.838Z,21.77
2022-12-06T05:38:07.759Z,24.80
2022-12-06T05:40:53.703Z,28.30
2022-12-06T05:43:39.608Z,29.17
2022-12-06T05:46:26.033Z,27.67
2022-12-06T05:49:12.051Z,28.08
2022-12-06T05:52:03.665Z,23.83
2022-12-06T05:54:50.090Z,28.85
2022-12-06T05:57:36.027Z,26.10
2022-12-06T06:00:22.240Z,28.88
2022-12-06T06:03:08.438Z,33.53
2022-12-06T06:05:58.613Z,27.95
2022-12-06T06:08:44.732Z,27.50
2022-12-06T06:11:30.637Z,26.52
2022-12-06T06:14:16.765Z,31.30
2022-12-06T06:17:02.760Z,23.42
2022-12-06T06:19:51.382Z,27.45
2022-12-06T06:22:38.694Z,24.80
2022-12-06T06:25:25.047Z,39.45
2022-12-06T06:28:11.065Z,29.80
2022-12-06T06:30:57.048Z,41.17
2022-12-06T06:33:43.048Z,32.13
2022-12-06T06:36:28.943Z,36.53
2022-12-06T06:39:14.892Z,32.85
2022-12-06T06:42:01.145Z,35.90
2022-12-06T06:44:46.987Z,38.80
2022-12-06T06:47:33.070Z,34.80
2022-12-06T06:50:19.188Z,36.75
2022-12-06T06:53:05.148Z,35.63
2022-12-06T06:55:51.107Z,43.30
2022-12-06T06:58:37.527Z,35.63
2022-12-06T07:01:24.895Z,39.00
2022-12-06T07:04:10.968Z,42.58
2022-12-06T07:06:57.847Z,39.33
2022-12-06T07:09:44.023Z,49.80
2022-12-06T07:12:30.260Z,46.22
2022-12-06T07:15:16.060Z,44.15
2022-12-06T07:18:02.134Z,50.90
2022-12-06T07:20:48.726Z,53.72
2022-12-06T07:23:35.770Z,49.03
2022-12-06T07:26:23.559Z,52.83
2022-12-06T07:29:09.485Z,53.80
2022-12-06T07:31:55.277Z,52.13
2022-12-06T07:34:41.318Z,47.08
2022-12-06T07:37:27.079Z,49.05
2022-12-06T07:40:14.577Z,45.65
2022-12-06T07:43:19.118Z,53.10
2022-12-06T07:46:11.541Z,56.03
2022-12-06T07:48:57.632Z,63.38
2022-12-06T07:51:45.037Z,53.65
2022-12-06T07:54:31.022Z,62.20
2022-12-06T07:57:16.976Z,57.63
2022-12-06T08:00:04.551Z,58.05
2022-12-06T08:02:57.972Z,59.53
2022-12-06T08:05:43.921Z,63.28
2022-12-06T08:08:31.675Z,67.20
2022-12-06T08:11:17.845Z,55.63
2022-12-06T08:14:05.000Z,58.60
2022-12-06T08:16:52.138Z,55.42
2022-12-06T08:19:38.022Z,49.00
2022-12-06T08:22:23.930Z,55.80
2022-12-06T08:25:10.057Z,55.08
2022-12-06T08:27:56.174Z,73.03
2022-12-06T08:30:42.149Z,59.08
2022-12-06T08:33:28.640Z,53.85
2022-12-06T08:36:17.433Z,56.53
2022-12-06T08:39:03.717Z,52.78
2022-12-06T08:41:55.445Z,61.47
2022-12-06T08:44:41.681Z,52.05
2022-12-06T08:47:27.503Z,57.95
2022-12-06T08:50:13.400Z,45.42
2022-12-06T08:52:59.301Z,43.60
2022-12-06T08:56:00.367Z,50.05
2022-12-06T08:58:48.933Z,46.65
2022-12-06T09:01:38.015Z,44.55
2022-12-06T09:04:24.603Z,44.17
2022-12-06T09:07:12.043Z,40.55
2022-12-06T09:09:58.351Z,52.75
2022-12-06T09:12:44.533Z,48.75
2022-12-06T09:15:30.517Z,38.05
2022-12-06T09:18:16.415Z,37.20
2022-12-06T09:21:10.385Z,35.67
2022-12-06T09:23:57.417Z,42.10
2022-12-06T09:26:44.213Z,47.45
2022-12-06T09:29:30.192Z,42.42
2022-12-06T09:32:15.874Z,45.47
2022-12-06T09:35:02.007Z,40.63
2022-12-06T09:37:48.460Z,52.15
2022-12-06T09:41:04.125Z,53.80
2022-12-06T09:44:24.453Z,46.10
2022-12-06T09:47:34.426Z,50.30
2022-12-06T09:50:26.374Z,41.63
2022-12-06T09:53:51.416Z,42.07
2022-12-06T09:56:44.111Z,40.47
2022-12-06T09:59:53.348Z,46.28
2022-12-06T10:03:02.412Z,44.15
2022-12-06T10:06:00.740Z,31.23
2022-12-06T10:09:08.548Z,55.95
2022-12-06T10:12:03.150Z,48.30
2022-12-06T10:15:07.209Z,48.78
2022-12-06T10:18:03.882Z,53.95
2022-12-06T10:20:59.454Z,45.72
2022-12-06T10:24:00.198Z,38.22
2022-12-06T10:27:31.443Z,37.92
2022-12-06T10:30:17.981Z,50.03
2022-12-06T10:33:22.975Z,51.47
2022-12-06T10:36:10.395Z,43.17
2022-12-06T10:39:03.845Z,50.17
2022-12-06T10:42:02.880Z,41.30
2022-12-06T10:44:56.098Z,41.83
2022-12-06T10:47:43.984Z,47.08
2022-12-06T10:50:35.201Z,45.10
2022-12-06T10:53:23.928Z,48.30
2022-12-06T10:56:19.963Z,44.80
2022-12-06T10:59:28.729Z,47.15
2022-12-06T11:02:28.813Z,47.72
2022-12-06T11:05:22.310Z,46.33
2022-12-06T11:08:43.805Z,48.20
2022-12-06T11:11:33.791Z,54.58
2022-12-06T11:14:27.397Z,43.55
2022-12-06T11:17:19.793Z,47.28
2022-12-06T11:20:25.967Z,39.60
2022-12-06T11:23:17.679Z,51.10
2022-12-06T11:26:22.717Z,37.67
2022-12-06T11:29:14.372Z,38.95
2022-12-06T11:32:03.400Z,37.10
2022-12-06T11:34:52.053Z,40.38
2022-12-06T11:37:44.167Z,34.13
2022-12-06T11:40:36.648Z,40.33
2022-12-06T11:43:26.829Z,35.75
2022-12-06T11:46:14.264Z,39.30
2022-12-06T11:49:11.355Z,41.92
2022-12-06T11:51:59.982Z,47.47
2022-12-06T11:55:08.029Z,43.17
2022-12-06T11:58:26.811Z,44.15
2022-12-06T12:01:16.362Z,39.92
2022-12-06T12:04:23.671Z,33.78
2022-12-06T12:07:09.411Z,29.77
2022-12-06T12:10:04.721Z,30.10
2022-12-06T12:13:09.310Z,27.88
2022-12-06T12:15:58.340Z,33.20
2022-12-06T12:18:59.526Z,33.28
2022-12-06T12:21:49.624Z,31.77
2022-12-06T12:27:58.906Z,39.10
2022-12-06T12:30:56.634Z,40.10
2022-12-06T12:33:42.763Z,34.15
2022-12-06T12:36:29.303Z,36.60
2022-12-06T12:39:27.639Z,50.60
2022-12-06T12:42:31.545Z,43.30
2022-12-06T12:45:19.735Z,45.15
2022-12-06T12:48:25.012Z,47.63
2022-12-06T12:51:20.612Z,51.10
2022-12-06T12:54:23.894Z,44.38
2022-12-06T12:59:58.812Z,43.78
2022-12-06T13:02:47.941Z,47.83
2022-12-06T13:05:40.590Z,48.22
2022-12-06T13:08:34.073Z,45.50
2022-12-06T13:11:20.971Z,44.33
2022-12-06T13:14:07.152Z,55.55
2022-12-06T13:16:56.076Z,49.65
2022-12-06T13:19:51.654Z,54.60
2022-12-06T13:22:45.306Z,47.92
2022-12-06T13:25:31.836Z,50.43
2022-12-06T13:28:22.625Z,50.08
2022-12-06T13:31:16.148Z,41.28
2022-12-06T13:34:54.762Z,47.90
2022-12-06T13:37:58.334Z,42.45
2022-12-06T13:40:54.126Z,50.10
2022-12-06T13:43:49.786Z,61.22
2022-12-06T13:46:36.026Z,60.53
2022-12-06T13:49:25.826Z,54.10
2022-12-06T13:52:40.943Z,59.78
2022-12-06T13:55:28.458Z,60.42
2022-12-06T13:58:18.597Z,66.68
2022-12-06T14:01:43.794Z,68.18
2022-12-06T14:07:33.650Z,67.15
2022-12-06T14:10:19.770Z,70.95
2022-12-06T14:13:05.984Z,76.18
2022-12-06T14:15:52.619Z,73.57
2022-12-06T14:18:40.815Z,57.67
2022-12-06T14:21:30.867Z,54.85
2022-12-06T14:24:40.526Z,62.97
2022-12-06T14:27:29.257Z,57.38
2022-12-06T14:30:26.489Z,62.92
2022-12-06T14:33:19.610Z,65.43
2022-12-06T14:36:06.308Z,59.53
2022-12-06T14:39:16.267Z,59.55
2022-12-06T14:42:22.730Z,57.50
2022-12-06T14:45:16.141Z,58.50
2022-12-06T14:48:04.086Z,48.83
2022-12-06T14:51:01.347Z,46.95
2022-12-06T14:53:47.562Z,59.97
2022-12-06T14:56:35.803Z,50.15
2022-12-06T14:59:46.135Z,45.67
2022-12-06T15:02:31.407Z,57.13
2022-12-06T15:05:38.934Z,62.67
2022-12-06T15:08:28.370Z,69.75
2022-12-06T15:11:34.394Z,65.80
2022-12-06T15:14:25.203Z,64.13
2022-12-06T15:17:11.437Z,68.65
2022-12-06T15:19:57.568Z,72.70
2022-12-06T15:22:46.398Z,68.55
2022-12-06T15:25:32.458Z,74.25
2022-12-06T15:28:20.005Z,75.53
2022-12-06T15:31:12.081Z,78.22
2022-12-06T15:33:58.349Z,67.72
2022-12-06T15:36:44.139Z,105.75
2022-12-06T15:39:33.191Z,109.18
2022-12-06T15:42:20.938Z,116.55
2022-12-06T15:45:14.591Z,130.57
2022-12-06T15:48:00.526Z,134.02
2022-12-06T15:50:47.565Z,169.07
2022-12-06T15:53:33.881Z,173.45
2022-12-06T15:56:22.682Z,164.82
2022-12-06T15:59:08.861Z,164.95
2022-12-06T16:01:54.903Z,136.82
2022-12-06T16:04:41.735Z,143.73
2022-12-06T16:07:27.577Z,141.40
2022-12-06T16:10:17.817Z,126.38
2022-12-06T16:13:24.888Z,112.53
2022-12-06T16:16:12.013Z,110.93
2022-12-06T16:18:59.014Z,106.35
2022-12-06T16:21:55.250Z,106.38
2022-12-06T16:24:42.776Z,95.35
2022-12-06T16:27:30.892Z,113.10
2022-12-06T16:30:18.523Z,112.95
2022-12-06T16:33:07.665Z,94.45
2022-12-06T16:35:59.505Z,100.47
2022-12-06T16:38:46.116Z,99.47
2022-12-06T16:41:34.102Z,114.47
2022-12-06T16:44:20.438Z,102.65
2022-12-06T16:47:07.819Z,113.20
2022-12-06T16:49:53.821Z,93.45
2022-12-06T16:52:39.751Z,84.18
2022-12-06T16:55:25.665Z,94.50
2022-12-06T16:58:11.714Z,91.50
2022-12-06T17:01:00.029Z,85.38
2022-12-06T17:03:49.511Z,79.25
2022-12-06T17:06:35.805Z,67.13
2022-12-06T17:09:21.764Z,64.43
2022-12-06T17:12:13.145Z,46.75
2022-12-06T17:15:00.198Z,49.22
2022-12-06T17:17:47.161Z,40.28
2022-12-06T17:20:33.285Z,40.45
2022-12-06T17:23:19.387Z,35.63
2022-12-06T17:26:05.639Z,39.97
2022-12-06T17:28:51.955Z,37.25
2022-12-06T17:31:38.787Z,33.25
2022-12-06T17:34:25.969Z,29.98
2022-12-06T17:37:12.203Z,33.40
2022-12-06T17:39:58.453Z,38.55
2022-12-06T17:42:59.361Z,36.17
2022-12-06T17:45:45.481Z,39.55
2022-12-06T17:48:35.979Z,40.38
2022-12-06T17:51:24.808Z,36.75
2022-12-06T17:54:11.359Z,30.92
2022-12-06T17:56:57.309Z,35.25
2022-12-06T17:59:48.541Z,31.83
2022-12-06T18:02:34.601Z,34.58
2022-12-06T18:05:20.538Z,48.75
2022-12-06T18:08:06.451Z,48.90
2022-12-06T18:10:59.504Z,47.80
2022-12-06T18:13:46.137Z,43.53
2022-12-06T18:16:39.266Z,38.53
2022-12-06T18:19:25.429Z,33.78
2022-12-06T18:22:11.520Z,41.72
2022-12-06T18:24:57.781Z,50.28
2022-12-06T18:27:44.201Z,43.22
2022-12-06T18:30:30.333Z,34.47
2022-12-06T18:33:20.720Z,37.50
2022-12-06T18:36:08.874Z,44.83
2022-12-06T18:39:02.647Z,42.33
2022-12-06T18:41:49.120Z,48.13
2022-12-06T18:44:35.012Z,47.00
2022-12-06T18:47:25.917Z,59.38
2022-12-06T18:50:12.005Z,52.47
2022-12-06T18:52:58.118Z,56.88
2022-12-06T18:55:44.393Z,47.13
2022-12-06T18:58:31.435Z,46.65
2022-12-06T19:01:18.882Z,51.47
2022-12-06T19:04:06.691Z,50.17
2022-12-06T19:06:53.055Z,47.50
2022-12-06T19:09:39.250Z,45.67
2022-12-06T19:12:25.094Z,47.85
2022-12-06T19:15:11.441Z,52.67
2022-12-06T19:17:57.664Z,58.88
2022-12-06T19:20:43.811Z,62.17
2022-12-06T19:23:32.999Z,49.95
2022-12-06T19:26:19.335Z,63.03
2022-12-06T19:29:05.960Z,57.30
2022-12-06T19:31:52.575Z,65.03
2022-12-06T19:34:38.525Z,46.63
2022-12-06T19:37:25.087Z,61.35
2022-12-06T19:40:11.582Z,46.97
2022-12-06T19:43:24.158Z,51.90
2022-12-06T19:46:12.251Z,52.78
2022-12-06T19:49:00.719Z,54.75
2022-12-06T19:51:47.727Z,51.58
2022-12-06T19:54:37.308Z,58.30
2022-12-06T19:57:23.382Z,58.40
2022-12-06T20:00:10.867Z,60.42
2022-12-06T20:02:58.063Z,59.40
2022-12-06T20:05:44.197Z,63.17
2022-12-06T20:08:30.439Z,61.92
2022-12-06T20:11:38.165Z,74.90
2022-12-06T20:14:24.541Z,69.45
2022-12-06T20:17:14.138Z,66.43
2022-12-06T20:20:02.111Z,71.20
2022-12-06T20:22:48.391Z,84.30
2022-12-06T20:25:37.237Z,73.00
2022-12-06T20:28:23.371Z,68.43
2022-12-06T20:31:24.011Z,65.53
2022-12-06T20:34:14.988Z,65.20
2022-12-06T20:37:03.687Z,61.40
2022-12-06T20:39:49.636Z,64.38
2022-12-06T20:42:35.539Z,54.72
2022-12-06T20:45:21.431Z,64.35
2022-12-06T20:48:07.508Z,59.72
2022-12-06T20:50:53.554Z,62.17
2022-12-06T20:53:40.148Z,70.05
2022-12-06T20:56:28.835Z,72.13
2022-12-06T20:59:14.945Z,73.35
2022-12-06T21:02:01.002Z,72.05
2022-12-06T21:04:47.228Z,61.60
2022-12-06T21:07:33.230Z,58.83
2022-12-06T21:10:19.466Z,60.20
2022-12-06T21:13:06.528Z,79.25
2022-12-06T21:16:07.514Z,81.30
2022-12-06T21:19:05.448Z,83.00
2022-12-06T21:21:58.586Z,74.40
2022-12-06T21:24:44.670Z,78.45
2022-12-06T21:27:30.522Z,64.32
2022-12-06T21:30:16.858Z,64.05
2022-12-06T21:33:05.169Z,62.20
2022-12-06T21:35:53.332Z,59.03
2022-12-06T21:38:39.498Z,62.13
2022-12-06T21:41:25.771Z,60.72
2022-12-06T21:44:12.009Z,58.45
2022-12-06T21:46:58.197Z,59.67
2022-12-06T21:49:44.375Z,61.65
2022-12-06T21:52:30.403Z,52.88
2022-12-06T21:55:16.432Z,56.28
2022-12-06T21:58:02.543Z,46.13
2022-12-06T22:00:48.480Z,44.90
2022-12-06T22:03:34.519Z,42.42
2022-12-06T22:06:21.033Z,50.45
2022-12-06T22:09:06.981Z,51.95
2022-12-06T22:11:52.891Z,52.65
2022-12-06T22:14:38.923Z,48.80
2022-12-06T22:17:25.136Z,50.17
2022-12-06T22:20:11.398Z,58.08
2022-12-06T22:22:57.254Z,58.25
2022-12-06T22:25:43.139Z,67.32
2022-12-06T22:28:29.048Z,60.95
2022-12-06T22:31:19.966Z,55.15
2022-12-06T22:34:06.032Z,57.38
2022-12-06T22:36:51.805Z,53.20
2022-12-06T22:39:37.621Z,57.08
2022-12-06T22:42:23.520Z,53.10
2022-12-06T22:45:09.785Z,61.38
2022-12-06T22:47:55.572Z,56.42
2022-12-06T22:50:41.563Z,61.92
2022-12-06T22:53:27.545Z,53.42
2022-12-06T22:56:14.497Z,62.28
2022-12-06T22:59:01.473Z,55.72
2022-12-06T23:01:47.544Z,65.05
2022-12-06T23:04:33.559Z,61.22
2022-12-06T23:07:19.627Z,53.53
2022-12-06T23:10:06.304Z,49.47
2022-12-06T23:12:52.468Z,52.33
2022-12-06T23:15:38.348Z,53.65
2022-12-06T23:18:24.956Z,48.55
2022-12-06T23:21:16.446Z,52.42
2022-12-06T23:24:05.564Z,57.42
2022-12-06T23:26:57.744Z,52.47
2022-12-06T23:29:44.081Z,47.15
2022-12-06T23:32:30.115Z,54.15
2022-12-06T23:35:16.562Z,55.55
2022-12-06T23:38:02.368Z,61.70
2022-12-06T23:40:48.332Z,57.42
2022-12-06T23:43:35.261Z,56.47
2022-12-06T23:46:23.162Z,59.85
2022-12-06T23:49:16.409Z,58.78
2022-12-06T23:52:02.602Z,55.97
2022-12-06T23:54:48.801Z,59.63
2022-12-06T23:57:34.730Z,58.15
